createdAt,value
2022-08-14T00:02:27.824Z,2.97
2022-08-14T00:04:59.601Z,2.80
2022-08-14T00:07:29.826Z,2.53
2022-08-14T00:10:50.356Z,2.38
2022-08-14T00:12:56.899Z,2.83
2022-08-14T00:15:43.287Z,3.00
2022-08-14T00:18:30.562Z,2.70
2022-08-14T00:21:11.353Z,2.72
2022-08-14T00:23:43.129Z,2.65
2022-08-14T00:26:23.041Z,2.70
2022-08-14T00:28:52.336Z,2.63
2022-08-14T00:31:35.330Z,2.53
2022-08-14T00:34:36.171Z,2.63
2022-08-14T00:36:59.282Z,2.80
2022-08-14T00:39:28.993Z,2.78
2022-08-14T00:41:58.511Z,2.65
2022-08-14T00:44:32.556Z,2.47
2022-08-14T00:47:03.480Z,2.75
2022-08-14T00:49:38.232Z,2.70
2022-08-14T00:52:14.193Z,3.10
2022-08-14T00:54:58.174Z,3.03
2022-08-14T00:57:28.976Z,3.28
2022-08-14T00:59:57.330Z,3.33
2022-08-14T01:02:28.238Z,3.03
2022-08-14T01:04:58.961Z,2.55
2022-08-14T01:07:29.842Z,2.67
2022-08-14T01:10:17.818Z,2.67
2022-08-14T01:12:48.721Z,2.97
2022-08-14T01:15:21.406Z,2.70
2022-08-14T01:18:17.339Z,2.35
2022-08-14T01:21:03.339Z,2.60
2022-08-14T01:23:41.784Z,2.78
2022-08-14T01:26:34.460Z,2.65
2022-08-14T01:29:06.919Z,2.80
2022-08-14T01:31:42.735Z,2.80
2022-08-14T01:35:21.073Z,2.80
2022-08-14T01:36:59.885Z,2.80
2022-08-14T01:39:32.280Z,3.03
2022-08-14T01:42:01.275Z,3.00
2022-08-14T01:44:33.748Z,3.08
2022-08-14T01:47:12.374Z,2.70
2022-08-14T01:49:59.557Z,2.85
2022-08-14T01:52:58.664Z,2.95
2022-08-14T01:55:30.473Z,3.05
2022-08-14T01:58:18.199Z,2.72
2022-08-14T02:00:48.110Z,2.78
2022-08-14T02:03:17.242Z,2.72
2022-08-14T02:05:46.041Z,2.90
2022-08-14T02:08:16.083Z,2.97
2022-08-14T02:11:15.896Z,2.72
2022-08-14T02:13:50.735Z,2.78
2022-08-14T02:16:26.292Z,2.83
2022-08-14T02:18:57.544Z,2.85
2022-08-14T02:21:31.762Z,3.40
2022-08-14T02:24:09.372Z,2.80
2022-08-14T02:28:24.970Z,2.80
2022-08-14T02:30:00.604Z,3.25
2022-08-14T02:32:36.953Z,2.80
2022-08-14T02:35:18.880Z,3.03
2022-08-14T02:37:49.541Z,3.13
2022-08-14T02:40:19.256Z,2.72
2022-08-14T02:42:54.727Z,3.00
2022-08-14T02:45:38.604Z,2.90
2022-08-14T02:49:01.971Z,3.10
2022-08-14T02:51:07.165Z,3.03
2022-08-14T02:53:42.475Z,2.80
2022-08-14T02:56:30.370Z,2.85
2022-08-14T02:59:07.154Z,2.97
2022-08-14T03:01:43.339Z,3.08
2022-08-14T03:04:13.280Z,3.17
2022-08-14T03:06:57.130Z,3.33
2022-08-14T03:10:25.274Z,3.30
2022-08-14T03:12:17.925Z,3.10
2022-08-14T03:15:03.675Z,3.33
2022-08-14T03:17:41.133Z,3.15
2022-08-14T03:20:24.159Z,3.20
2022-08-14T03:22:52.630Z,3.10
2022-08-14T03:25:23.100Z,3.03
2022-08-14T03:27:58.259Z,2.92
2022-08-14T03:30:38.870Z,3.30
2022-08-14T03:33:10.962Z,3.40
2022-08-14T03:36:00.384Z,3.05
2022-08-14T03:39:11.841Z,3.15
2022-08-14T03:41:23.034Z,3.22
2022-08-14T03:43:57.012Z,3.17
2022-08-14T03:46:39.113Z,2.90
2022-08-14T03:49:28.283Z,3.10
2022-08-14T03:51:58.361Z,3.17
2022-08-14T03:54:29.760Z,2.83
2022-08-14T03:57:02.656Z,3.17
2022-08-14T03:59:32.218Z,3.30
2022-08-14T04:02:04.483Z,2.90
2022-08-14T04:04:34.164Z,3.22
2022-08-14T04:07:03.320Z,2.92
2022-08-14T04:09:31.594Z,3.45
2022-08-14T04:11:59.929Z,3.53
2022-08-14T04:14:30.119Z,3.42
2022-08-14T04:16:58.601Z,3.55
2022-08-14T04:19:33.018Z,3.17
2022-08-14T04:22:06.333Z,3.40
2022-08-14T04:24:38.366Z,3.30
2022-08-14T04:27:09.586Z,3.17
2022-08-14T04:29:39.417Z,3.10
2022-08-14T04:32:57.335Z,3.15
2022-08-14T04:35:07.560Z,3.03
2022-08-14T04:37:56.561Z,3.20
2022-08-14T04:40:42.983Z,3.63
2022-08-14T04:43:38.322Z,3.30
2022-08-14T04:46:57.136Z,2.83
2022-08-14T04:49:00.430Z,2.88
2022-08-14T04:51:46.279Z,3.42
2022-08-14T04:54:14.956Z,3.05
2022-08-14T04:56:45.754Z,2.97
2022-08-14T04:59:14.649Z,2.67
2022-08-14T05:01:48.955Z,2.90
2022-08-14T05:04:20.817Z,2.70
2022-08-14T05:06:54.241Z,2.80
2022-08-14T05:09:24.671Z,2.80
2022-08-14T05:13:08.325Z,2.55
2022-08-14T05:14:53.448Z,2.63
2022-08-14T05:17:31.839Z,2.80
2022-08-14T05:21:54.582Z,2.60
2022-08-14T05:23:03.582Z,2.72
2022-08-14T05:25:33.552Z,2.72
2022-08-14T05:28:12.478Z,3.13
2022-08-14T05:30:44.563Z,3.25
2022-08-14T05:33:14.000Z,3.25
2022-08-14T05:35:44.245Z,3.13
2022-08-14T05:38:30.686Z,2.72
2022-08-14T05:41:00.726Z,2.90
2022-08-14T05:43:40.739Z,2.88
2022-08-14T05:46:15.202Z,2.72
2022-08-14T05:48:43.976Z,2.67
2022-08-14T05:51:13.604Z,2.90
2022-08-14T05:53:43.922Z,2.72
2022-08-14T05:56:29.052Z,2.85
2022-08-14T05:58:57.394Z,2.92
2022-08-14T06:01:31.408Z,2.53
2022-08-14T06:04:00.101Z,3.25
2022-08-14T06:06:28.466Z,3.10
2022-08-14T06:08:58.770Z,3.03
2022-08-14T06:11:30.834Z,2.33
2022-08-14T06:13:59.967Z,2.42
2022-08-14T06:16:28.143Z,2.75
2022-08-14T06:18:59.512Z,2.60
2022-08-14T06:21:27.818Z,2.40
2022-08-14T06:23:59.497Z,2.63
2022-08-14T06:26:30.270Z,2.58
2022-08-14T06:28:59.884Z,2.58
2022-08-14T06:31:28.088Z,2.50
2022-08-14T06:35:11.764Z,2.35
2022-08-14T06:36:44.606Z,2.58
2022-08-14T06:39:14.235Z,2.22
2022-08-14T06:41:56.800Z,2.80
2022-08-14T06:44:32.553Z,2.60
2022-08-14T06:47:02.870Z,2.50
2022-08-14T06:49:34.323Z,2.90
2022-08-14T06:52:15.946Z,3.00
2022-08-14T06:54:46.769Z,2.95
2022-08-14T06:57:14.947Z,2.67
2022-08-14T06:59:43.322Z,2.47
2022-08-14T07:02:29.868Z,2.60
2022-08-14T07:05:20.999Z,2.85
2022-08-14T07:07:53.070Z,2.47
2022-08-14T07:10:25.422Z,2.53
2022-08-14T07:13:03.916Z,2.40
2022-08-14T07:15:39.448Z,2.85
2022-08-14T07:18:09.580Z,2.47
2022-08-14T07:20:38.984Z,2.45
2022-08-14T07:23:19.757Z,2.53
2022-08-14T07:25:51.893Z,2.47
2022-08-14T07:28:24.475Z,2.42
2022-08-14T07:30:56.272Z,2.58
2022-08-14T07:33:29.466Z,2.45
2022-08-14T07:36:00.938Z,3.30
2022-08-14T07:38:37.558Z,2.67
2022-08-14T07:41:14.233Z,2.83
2022-08-14T07:43:47.508Z,2.75
2022-08-14T07:46:29.538Z,2.63
2022-08-14T07:48:59.566Z,3.40
2022-08-14T07:51:34.067Z,3.22
2022-08-14T07:54:04.141Z,2.67
2022-08-14T07:56:44.101Z,2.55
2022-08-14T07:59:18.695Z,2.50
2022-08-14T08:01:48.124Z,2.63
2022-08-14T08:04:26.943Z,2.47
2022-08-14T08:06:56.078Z,2.92
2022-08-14T08:09:32.387Z,3.17
2022-08-14T08:12:09.317Z,2.70
2022-08-14T08:14:56.928Z,2.38
2022-08-14T08:17:34.686Z,2.38
2022-08-14T08:20:09.285Z,2.10
2022-08-14T08:22:40.793Z,2.30
2022-08-14T08:25:13.937Z,2.10
2022-08-14T08:27:58.655Z,2.30
2022-08-14T08:30:27.827Z,2.40
2022-08-14T08:33:01.198Z,2.20
2022-08-14T08:35:46.924Z,2.10
2022-08-14T08:39:18.226Z,2.33
2022-08-14T08:41:11.196Z,2.10
2022-08-14T08:43:46.192Z,2.20
2022-08-14T08:46:23.906Z,1.73
2022-08-14T08:51:33.244Z,1.90
2022-08-14T08:54:05.346Z,1.50
2022-08-14T08:56:40.485Z,1.65
2022-08-14T08:59:22.253Z,1.55
2022-08-14T09:01:58.783Z,1.90
2022-08-14T09:04:29.886Z,1.70
2022-08-14T09:07:09.618Z,1.73
2022-08-14T09:09:53.714Z,1.90
2022-08-14T09:12:22.930Z,1.80
2022-08-14T09:14:53.304Z,1.40
2022-08-14T09:17:25.668Z,1.80
2022-08-14T09:19:55.402Z,1.75
2022-08-14T09:22:35.855Z,1.60
2022-08-14T09:25:07.133Z,1.40
2022-08-14T09:27:37.637Z,1.42
2022-08-14T09:30:30.605Z,1.67
2022-08-14T09:33:22.507Z,1.73
2022-08-14T09:36:05.044Z,1.70
2022-08-14T09:38:47.565Z,1.77
2022-08-14T09:42:17.815Z,1.63
2022-08-14T09:44:45.757Z,1.48
2022-08-14T09:47:16.899Z,1.70
2022-08-14T09:49:52.973Z,1.60
2022-08-14T09:52:33.297Z,1.67
2022-08-14T09:55:02.891Z,1.90
2022-08-14T09:57:32.527Z,1.70
2022-08-14T10:00:30.188Z,1.80
2022-08-14T10:03:05.919Z,1.60
2022-08-14T10:05:39.122Z,1.60
2022-08-14T10:08:26.541Z,1.35
2022-08-14T10:11:02.879Z,1.52
2022-08-14T10:13:37.142Z,1.50
2022-08-14T10:16:25.860Z,1.63
2022-08-14T10:19:09.519Z,1.25
2022-08-14T10:21:58.648Z,1.50
2022-08-14T10:24:37.280Z,1.30
2022-08-14T10:27:17.013Z,1.35
2022-08-14T10:29:50.916Z,1.33
2022-08-14T10:32:36.681Z,1.20
2022-08-14T10:35:15.130Z,1.50
2022-08-14T10:37:48.130Z,1.60
2022-08-14T10:40:38.743Z,1.30
2022-08-14T10:43:23.210Z,1.27
2022-08-14T10:46:03.767Z,1.60
2022-08-14T10:48:58.461Z,1.75
2022-08-14T10:51:34.032Z,1.70
2022-08-14T10:54:26.060Z,1.40
2022-08-14T10:57:20.221Z,1.80
2022-08-14T10:59:52.745Z,1.48
2022-08-14T11:02:44.823Z,1.13
2022-08-14T11:05:20.122Z,1.30
2022-08-14T11:08:01.850Z,1.40
2022-08-14T11:10:45.163Z,1.48
2022-08-14T11:13:21.233Z,1.33
2022-08-14T11:15:53.472Z,1.17
2022-08-14T11:18:32.111Z,1.02
2022-08-14T11:21:08.407Z,1.10
2022-08-14T11:23:41.161Z,1.20
2022-08-14T11:26:13.674Z,1.10
2022-08-14T11:28:47.356Z,1.10
2022-08-14T11:31:20.266Z,0.95
2022-08-14T11:33:57.352Z,1.20
2022-08-14T11:36:57.022Z,1.10
2022-08-14T11:39:33.360Z,1.30
2022-08-14T11:42:55.475Z,1.20
2022-08-14T11:44:56.623Z,1.30
2022-08-14T11:47:25.294Z,1.40
2022-08-14T11:49:54.832Z,1.55
2022-08-14T11:52:23.740Z,1.40
2022-08-14T11:55:00.499Z,1.35
2022-08-14T11:57:30.426Z,1.50
2022-08-14T12:00:04.698Z,1.50
2022-08-14T12:03:02.687Z,1.70
2022-08-14T12:05:33.901Z,1.58
2022-08-14T12:08:11.939Z,1.50
2022-08-14T12:10:44.950Z,1.52
2022-08-14T12:13:18.927Z,1.40
2022-08-14T12:15:59.783Z,1.60
2022-08-14T12:18:36.468Z,1.75
2022-08-14T12:21:19.225Z,1.50
2022-08-14T12:23:51.036Z,1.60
2022-08-14T12:26:39.651Z,1.38
2022-08-14T12:29:13.206Z,1.75
2022-08-14T12:31:44.868Z,1.80
2022-08-14T12:34:20.070Z,1.70
2022-08-14T12:36:49.023Z,2.10
2022-08-14T12:39:23.887Z,1.80
2022-08-14T12:42:01.476Z,1.67
2022-08-14T12:44:34.985Z,1.75
2022-08-14T12:47:09.604Z,1.50
2022-08-14T12:49:52.663Z,1.70
2022-08-14T12:52:41.749Z,1.90
2022-08-14T12:55:20.897Z,1.70
2022-08-14T12:57:53.725Z,1.42
2022-08-14T13:00:24.670Z,1.60
2022-08-14T13:02:56.417Z,1.90
2022-08-14T13:05:29.951Z,2.30
2022-08-14T13:07:59.491Z,1.60
2022-08-14T13:10:51.198Z,1.30
2022-08-14T13:13:21.062Z,1.33
2022-08-14T13:15:56.268Z,1.70
2022-08-14T13:18:28.188Z,1.50
2022-08-14T13:21:01.283Z,1.60
2022-08-14T13:23:36.155Z,1.17
2022-08-14T13:26:04.993Z,1.58
2022-08-14T13:29:00.559Z,1.67
2022-08-14T13:31:30.104Z,1.45
2022-08-14T13:34:00.060Z,1.75
2022-08-14T13:36:51.711Z,1.77
2022-08-14T13:39:17.547Z,1.52
2022-08-14T13:41:46.913Z,1.60
2022-08-14T13:44:22.050Z,1.50
2022-08-14T13:46:52.793Z,1.50
2022-08-14T13:49:20.966Z,1.50
2022-08-14T13:51:58.819Z,1.48
2022-08-14T13:54:32.699Z,1.45
2022-08-14T13:57:03.733Z,1.50
2022-08-14T13:59:37.372Z,1.40
2022-08-14T14:02:08.620Z,1.88
2022-08-14T14:04:42.651Z,1.45
2022-08-14T14:07:17.371Z,1.38
2022-08-14T14:09:51.016Z,1.67
2022-08-14T14:12:38.011Z,1.52
2022-08-14T14:15:13.714Z,1.42
2022-08-14T14:17:44.172Z,1.42
2022-08-14T14:20:35.455Z,1.60
2022-08-14T14:23:11.531Z,1.60
2022-08-14T14:25:48.090Z,1.55
2022-08-14T14:28:23.860Z,1.58
2022-08-14T14:30:57.471Z,1.60
2022-08-14T14:33:49.306Z,1.30
2022-08-14T14:36:21.946Z,1.50
2022-08-14T14:38:54.157Z,1.50
2022-08-14T14:41:25.725Z,1.50
2022-08-14T14:43:57.533Z,1.50
2022-08-14T14:46:36.048Z,1.55
2022-08-14T14:49:11.198Z,1.30
2022-08-14T14:51:43.542Z,1.10
2022-08-14T14:54:13.176Z,1.20
2022-08-14T14:56:47.613Z,0.98
2022-08-14T14:59:20.111Z,1.10
2022-08-14T15:01:52.380Z,1.60
2022-08-14T15:04:21.295Z,1.35
2022-08-14T15:06:50.198Z,1.30
2022-08-14T15:09:23.702Z,1.30
2022-08-14T15:11:52.182Z,1.20
2022-08-14T15:14:54.729Z,1.80
2022-08-14T15:17:10.868Z,1.20
2022-08-14T15:19:39.606Z,1.35
2022-08-14T15:22:10.690Z,1.50
2022-08-14T15:24:39.904Z,1.02
2022-08-14T15:27:09.246Z,1.13
2022-08-14T15:29:43.040Z,1.33
2022-08-14T15:32:13.913Z,1.30
2022-08-14T15:34:51.825Z,1.20
2022-08-14T15:37:22.727Z,1.13
2022-08-14T15:39:52.587Z,1.20
2022-08-14T15:42:23.007Z,1.00
2022-08-14T15:44:58.512Z,1.10
2022-08-14T15:47:32.607Z,1.10
2022-08-14T15:50:04.725Z,0.90
2022-08-14T15:52:37.045Z,1.40
2022-08-14T15:55:13.184Z,1.15
2022-08-14T15:58:02.343Z,1.10
2022-08-14T16:00:50.195Z,1.05
2022-08-14T16:03:24.983Z,1.00
2022-08-14T16:06:03.365Z,1.20
2022-08-14T16:08:31.549Z,1.05
2022-08-14T16:11:01.450Z,1.20
2022-08-14T16:13:42.185Z,1.05
2022-08-14T16:16:34.769Z,1.20
2022-08-14T16:19:11.078Z,0.90
2022-08-14T16:22:01.845Z,1.20
2022-08-14T16:24:34.693Z,1.10
2022-08-14T16:27:05.982Z,1.10
2022-08-14T16:29:39.002Z,1.00
2022-08-14T16:32:33.137Z,1.20
2022-08-14T16:34:59.008Z,1.30
2022-08-14T16:37:30.949Z,1.13
2022-08-14T16:40:03.293Z,1.20
2022-08-14T16:42:38.909Z,1.05
2022-08-14T16:45:27.336Z,1.20
2022-08-14T16:47:55.662Z,1.00
2022-08-14T16:50:40.551Z,1.13
2022-08-14T16:53:17.248Z,1.00
2022-08-14T16:55:53.440Z,1.00
2022-08-14T16:58:30.298Z,1.00
2022-08-14T17:01:22.962Z,1.10
2022-08-14T17:04:00.670Z,1.00
2022-08-14T17:06:55.694Z,1.15
2022-08-14T17:09:44.625Z,1.30
2022-08-14T17:12:29.108Z,1.25
2022-08-14T17:15:10.029Z,1.30
2022-08-14T17:17:57.856Z,1.25
2022-08-14T17:20:53.535Z,1.00
2022-08-14T17:23:17.794Z,1.10
2022-08-14T17:25:50.890Z,1.13
2022-08-14T17:28:51.416Z,1.20
2022-08-14T17:31:12.098Z,1.13
2022-08-14T17:36:31.321Z,1.20
2022-08-14T17:39:08.682Z,1.00
2022-08-14T17:41:44.220Z,1.08
2022-08-14T17:44:34.388Z,0.88
2022-08-14T17:47:18.403Z,1.00
2022-08-14T17:49:52.692Z,1.10
2022-08-14T17:52:36.548Z,1.10
2022-08-14T17:56:01.110Z,1.08
2022-08-14T17:58:20.314Z,1.00
2022-08-14T18:00:52.595Z,1.15
2022-08-14T18:03:45.804Z,1.00
2022-08-14T18:06:38.600Z,1.10
2022-08-14T18:08:59.779Z,1.10
2022-08-14T18:11:45.570Z,1.08
2022-08-14T18:14:32.527Z,1.00
2022-08-14T18:17:05.877Z,1.10
2022-08-14T18:19:37.698Z,1.13
2022-08-14T18:22:31.491Z,1.30
2022-08-14T18:25:02.363Z,1.40
2022-08-14T18:27:38.842Z,1.50
2022-08-14T18:30:33.163Z,1.60
2022-08-14T18:33:15.668Z,1.45
2022-08-14T18:35:59.090Z,1.25
2022-08-14T18:38:45.676Z,1.20
2022-08-14T18:41:36.638Z,1.38
2022-08-14T18:44:10.827Z,1.17
2022-08-14T18:47:22.279Z,1.55
2022-08-14T18:50:26.199Z,1.13
2022-08-14T18:53:05.762Z,1.10
2022-08-14T18:55:54.480Z,1.02
2022-08-14T18:58:34.374Z,1.23
2022-08-14T19:01:06.217Z,1.15
2022-08-14T19:03:57.544Z,1.20
2022-08-14T19:06:56.336Z,1.20
2022-08-14T19:09:56.373Z,1.27
2022-08-14T19:13:13.210Z,1.45
2022-08-14T19:15:56.153Z,1.20
2022-08-14T19:18:30.190Z,1.35
2022-08-14T19:21:01.398Z,1.15
2022-08-14T19:23:42.867Z,1.40
2022-08-14T19:26:36.596Z,1.27
2022-08-14T19:29:37.737Z,1.50
2022-08-14T19:32:36.583Z,1.48
2022-08-14T19:35:48.643Z,1.40
2022-08-14T19:38:52.113Z,1.33
2022-08-14T19:41:25.035Z,1.45
2022-08-14T19:44:10.895Z,1.60
2022-08-14T19:47:01.018Z,1.58
2022-08-14T19:50:08.601Z,1.60
2022-08-14T19:52:29.644Z,1.40
2022-08-14T19:54:59.075Z,1.77
2022-08-14T19:57:29.475Z,1.65
2022-08-14T20:00:04.470Z,1.58
2022-08-14T20:02:37.621Z,1.70
2022-08-14T20:05:12.319Z,1.40
2022-08-14T20:07:59.136Z,1.67
2022-08-14T20:11:06.478Z,1.52
2022-08-14T20:13:31.987Z,1.50
2022-08-14T20:16:12.257Z,1.50
2022-08-14T20:18:51.619Z,1.70
2022-08-14T20:21:21.677Z,1.52
2022-08-14T20:23:51.565Z,1.60
2022-08-14T20:26:31.246Z,1.67
2022-08-14T20:29:04.396Z,1.70
2022-08-14T20:31:36.920Z,1.80
2022-08-14T20:34:24.466Z,1.55
2022-08-14T20:37:04.652Z,1.60
2022-08-14T20:39:45.250Z,1.55
2022-08-14T20:42:43.551Z,1.80
2022-08-14T20:45:23.759Z,1.60
2022-08-14T20:48:01.033Z,1.80
2022-08-14T20:50:31.837Z,1.80
2022-08-14T20:53:06.111Z,1.98
2022-08-14T20:55:41.466Z,1.58
2022-08-14T20:58:42.013Z,1.95
2022-08-14T21:01:36.038Z,2.17
2022-08-14T21:04:22.369Z,1.90
2022-08-14T21:07:25.552Z,1.73
2022-08-14T21:10:06.328Z,2.00
2022-08-14T21:12:35.729Z,1.90
2022-08-14T21:15:10.238Z,1.90
2022-08-14T21:17:43.189Z,1.98
2022-08-14T21:20:25.753Z,1.90
2022-08-14T21:23:00.705Z,1.85
2022-08-14T21:25:31.688Z,1.88
2022-08-14T21:28:04.903Z,1.98
2022-08-14T21:30:51.828Z,1.90
2022-08-14T21:33:22.613Z,2.05
2022-08-14T21:35:55.000Z,2.10
2022-08-14T21:38:33.478Z,2.20
2022-08-14T21:41:41.310Z,1.83
2022-08-14T21:44:05.079Z,1.75
2022-08-14T21:46:49.835Z,1.90
2022-08-14T21:49:22.795Z,1.88
2022-08-14T21:52:00.001Z,2.30
2022-08-14T21:54:49.405Z,2.35
2022-08-14T21:58:46.357Z,2.28
2022-08-14T22:00:31.600Z,2.28
2022-08-14T22:03:02.591Z,2.22
2022-08-14T22:05:32.361Z,2.05
2022-08-14T22:08:02.663Z,2.53
2022-08-14T22:10:32.662Z,2.50
2022-08-14T22:13:01.898Z,2.42
2022-08-14T22:15:31.389Z,2.60
2022-08-14T22:18:00.355Z,2.42
2022-08-14T22:20:33.558Z,2.40
2022-08-14T22:23:08.564Z,2.60
2022-08-14T22:25:41.554Z,2.17
2022-08-14T22:28:15.553Z,2.42
2022-08-14T22:30:45.167Z,2.25
2022-08-14T22:33:15.608Z,2.08
2022-08-14T22:35:46.566Z,2.45
2022-08-14T22:38:35.588Z,1.88
2022-08-14T22:41:29.493Z,2.13
2022-08-14T22:44:01.775Z,2.17
2022-08-14T22:46:30.021Z,2.25
2022-08-14T22:48:58.679Z,2.22
2022-08-14T22:51:28.612Z,2.35
2022-08-14T22:53:58.211Z,2.72
2022-08-14T22:56:30.643Z,2.75
2022-08-14T22:59:02.135Z,2.60
2022-08-14T23:01:55.784Z,2.97
2022-08-14T23:04:35.272Z,2.97
2022-08-14T23:07:22.165Z,3.05
2022-08-14T23:09:56.019Z,3.05
2022-08-14T23:12:29.453Z,3.60
2022-08-14T23:15:00.217Z,3.50
2022-08-14T23:17:39.119Z,3.22
2022-08-14T23:20:18.947Z,3.53
2022-08-14T23:22:52.685Z,3.15
2022-08-14T23:25:56.973Z,3.10
2022-08-14T23:28:34.964Z,3.05
2022-08-14T23:31:09.825Z,2.83
2022-08-14T23:33:42.090Z,2.67
2022-08-14T23:36:31.475Z,2.75
2022-08-14T23:39:10.548Z,2.90
2022-08-14T23:41:47.145Z,3.13
2022-08-14T23:44:23.597Z,3.53
2022-08-14T23:46:56.873Z,3.08
2022-08-14T23:49:57.054Z,3.20
2022-08-14T23:52:51.234Z,2.95
2022-08-14T23:55:11.556Z,2.60
2022-08-14T23:57:44.067Z,3.10
